createdAt,value
2022-11-22T00:01:24.235Z,10.10
2022-11-22T00:03:52.368Z,10.10
2022-11-22T00:06:20.560Z,10.10
2022-11-22T00:08:50.133Z,10.10
2022-11-22T00:11:18.298Z,10.10
2022-11-22T00:13:46.542Z,10.10
2022-11-22T00:16:14.657Z,10.10
2022-11-22T00:18:42.754Z,10.10
2022-11-22T00:21:11.357Z,10.20
2022-11-22T00:23:39.475Z,10.10
2022-11-22T00:26:13.931Z,10.00
2022-11-22T00:28:42.082Z,10.10
2022-11-22T00:31:10.236Z,10.10
2022-11-22T00:33:38.418Z,10.00
2022-11-22T00:36:06.729Z,10.10
2022-11-22T00:38:34.934Z,10.10
2022-11-22T00:41:03.325Z,10.30
2022-11-22T00:43:32.909Z,10.10
2022-11-22T00:46:01.489Z,10.00
2022-11-22T00:48:29.829Z,10.00
2022-11-22T00:50:58.148Z,10.00
2022-11-22T00:53:26.652Z,10.00
2022-11-22T00:55:54.909Z,10.00
2022-11-22T00:58:23.010Z,10.00
2022-11-22T01:00:56.441Z,10.00
2022-11-22T01:03:25.495Z,10.20
2022-11-22T01:05:56.375Z,10.00
2022-11-22T01:08:24.663Z,10.00
2022-11-22T01:10:57.671Z,10.00
2022-11-22T01:13:26.377Z,10.00
2022-11-22T01:15:59.822Z,10.00
2022-11-22T01:18:27.990Z,10.00
2022-11-22T01:20:56.217Z,10.00
2022-11-22T01:23:24.428Z,10.00
2022-11-22T01:25:52.728Z,10.00
2022-11-22T01:28:23.698Z,10.00
2022-11-22T01:30:52.743Z,10.00
2022-11-22T01:33:22.597Z,10.00
2022-11-22T01:35:50.851Z,10.00
2022-11-22T01:38:19.019Z,10.00
2022-11-22T01:40:47.231Z,10.00
2022-11-22T01:43:18.918Z,10.00
2022-11-22T01:45:52.611Z,10.00
2022-11-22T01:48:36.575Z,10.00
2022-11-22T01:51:08.397Z,10.00
2022-11-22T01:53:39.921Z,10.00
2022-11-22T01:56:12.601Z,10.00
2022-11-22T01:58:44.187Z,10.00
2022-11-22T02:01:12.957Z,10.00
2022-11-22T02:03:48.352Z,10.10
2022-11-22T02:06:18.017Z,10.00
2022-11-22T02:08:53.888Z,10.00
2022-11-22T02:11:23.110Z,10.00
2022-11-22T02:13:53.527Z,10.00
2022-11-22T02:16:21.966Z,10.00
2022-11-22T02:18:51.523Z,10.00
2022-11-22T02:21:20.068Z,10.00
2022-11-22T02:23:56.811Z,10.00
2022-11-22T02:26:29.416Z,10.00
2022-11-22T02:29:02.070Z,10.00
2022-11-22T02:31:40.341Z,10.00
2022-11-22T02:34:08.640Z,10.00
2022-11-22T02:36:40.750Z,10.00
2022-11-22T02:39:10.904Z,10.00
2022-11-22T02:41:41.331Z,10.00
2022-11-22T02:44:13.905Z,10.00
2022-11-22T02:46:51.561Z,10.00
2022-11-22T02:49:20.873Z,10.00
2022-11-22T02:51:49.479Z,10.00
2022-11-22T02:54:17.862Z,10.00
2022-11-22T02:56:47.661Z,10.00
2022-11-22T02:59:16.038Z,10.00
2022-11-22T03:01:47.627Z,10.00
2022-11-22T03:04:24.715Z,9.90
2022-11-22T03:06:55.476Z,9.90
2022-11-22T03:09:24.584Z,9.90
2022-11-22T03:11:54.954Z,9.90
2022-11-22T03:14:23.170Z,9.90
2022-11-22T03:16:51.655Z,10.00
2022-11-22T03:19:20.138Z,9.90
2022-11-22T03:21:48.378Z,9.90
2022-11-22T03:24:16.614Z,9.90
2022-11-22T03:26:48.901Z,9.90
2022-11-22T03:29:18.720Z,9.90
2022-11-22T03:31:46.872Z,9.90
2022-11-22T03:34:15.669Z,9.90
2022-11-22T03:36:44.173Z,9.90
2022-11-22T03:39:12.346Z,9.90
2022-11-22T03:41:40.517Z,9.80
2022-11-22T03:44:08.773Z,9.80
2022-11-22T03:46:38.316Z,9.80
2022-11-22T03:49:06.448Z,9.90
2022-11-22T03:51:34.631Z,9.80
2022-11-22T03:54:02.760Z,9.80
2022-11-22T03:56:31.132Z,9.80
2022-11-22T03:58:59.337Z,9.80
2022-11-22T04:01:27.563Z,9.80
2022-11-22T04:03:57.230Z,9.80
2022-11-22T04:06:25.406Z,9.80
2022-11-22T04:08:53.584Z,9.80
2022-11-22T04:11:21.719Z,9.80
2022-11-22T04:14:07.561Z,9.80
2022-11-22T04:16:35.962Z,9.80
2022-11-22T04:19:05.722Z,9.80
2022-11-22T04:21:35.540Z,9.90
2022-11-22T04:24:22.306Z,9.70
2022-11-22T04:26:50.526Z,9.80
2022-11-22T04:29:20.098Z,9.70
2022-11-22T04:32:06.726Z,9.70
2022-11-22T04:34:37.226Z,9.70
2022-11-22T04:37:06.250Z,9.70
2022-11-22T04:39:34.809Z,9.70
2022-11-22T04:42:20.363Z,9.70
2022-11-22T04:44:48.579Z,9.90
2022-11-22T04:47:39.794Z,9.70
2022-11-22T04:50:24.129Z,9.70
2022-11-22T04:52:54.927Z,9.70
2022-11-22T04:55:23.419Z,9.70
2022-11-22T04:57:57.595Z,9.70
2022-11-22T05:00:28.439Z,9.60
2022-11-22T05:02:56.785Z,9.70
2022-11-22T05:05:26.798Z,9.60
2022-11-22T05:07:54.998Z,9.70
2022-11-22T05:10:26.819Z,9.60
2022-11-22T05:12:55.518Z,9.70
2022-11-22T05:15:23.878Z,9.60
2022-11-22T05:17:52.063Z,9.60
2022-11-22T05:20:20.415Z,9.60
2022-11-22T05:23:07.776Z,9.60
2022-11-22T05:25:38.264Z,9.60
2022-11-22T05:28:09.394Z,9.60
2022-11-22T05:30:40.149Z,9.60
2022-11-22T05:33:08.927Z,9.60
2022-11-22T05:35:37.039Z,9.60
2022-11-22T05:38:06.755Z,9.60
2022-11-22T05:40:34.910Z,9.60
2022-11-22T05:43:03.122Z,9.60
2022-11-22T05:45:31.374Z,9.60
2022-11-22T05:47:59.548Z,9.60
2022-11-22T05:50:27.777Z,9.50
2022-11-22T05:52:56.038Z,9.50
2022-11-22T05:55:25.623Z,9.50
2022-11-22T05:57:53.794Z,9.50
2022-11-22T06:00:22.318Z,9.50
2022-11-22T06:02:50.518Z,9.50
2022-11-22T06:05:18.773Z,9.50
2022-11-22T06:07:47.537Z,9.50
2022-11-22T06:10:16.000Z,9.50
2022-11-22T06:12:45.505Z,9.50
2022-11-22T06:15:13.781Z,9.50
2022-11-22T06:17:42.114Z,9.50
2022-11-22T06:20:11.312Z,9.50
2022-11-22T06:22:39.572Z,9.50
2022-11-22T06:25:08.915Z,9.50
2022-11-22T06:27:37.100Z,9.50
2022-11-22T06:30:08.412Z,9.40
2022-11-22T06:32:36.769Z,9.40
2022-11-22T06:35:05.370Z,9.40
2022-11-22T06:37:33.564Z,9.40
2022-11-22T06:40:01.847Z,9.50
2022-11-22T06:42:30.338Z,9.40
2022-11-22T06:44:58.727Z,9.40
2022-11-22T06:47:28.418Z,9.40
2022-11-22T06:49:56.597Z,9.40
2022-11-22T06:52:26.540Z,9.40
2022-11-22T06:54:54.984Z,9.40
2022-11-22T06:57:23.388Z,9.40
2022-11-22T06:59:52.134Z,9.40
2022-11-22T07:02:20.427Z,9.40
2022-11-22T07:05:17.178Z,9.40
2022-11-22T07:07:39.593Z,9.40
2022-11-22T07:10:08.685Z,9.40
2022-11-22T07:12:36.919Z,9.40
2022-11-22T07:15:05.599Z,9.40
2022-11-22T07:17:33.929Z,9.30
2022-11-22T07:20:07.973Z,9.30
2022-11-22T07:22:36.455Z,9.30
2022-11-22T07:25:05.362Z,9.30
2022-11-22T07:27:33.702Z,9.30
2022-11-22T07:30:02.012Z,9.30
2022-11-22T07:32:33.228Z,9.30
2022-11-22T07:35:01.763Z,9.30
2022-11-22T07:37:32.405Z,9.30
2022-11-22T07:40:00.619Z,9.30
2022-11-22T07:42:29.078Z,9.20
2022-11-22T07:44:57.372Z,9.30
2022-11-22T07:47:25.716Z,9.30
2022-11-22T07:49:54.051Z,9.30
2022-11-22T07:52:22.780Z,9.20
2022-11-22T07:54:52.497Z,9.30
2022-11-22T07:57:20.773Z,9.20
2022-11-22T07:59:49.119Z,9.20
2022-11-22T08:02:17.464Z,9.20
2022-11-22T08:04:46.003Z,9.20
2022-11-22T08:07:14.468Z,9.20
2022-11-22T08:09:42.737Z,9.20
2022-11-22T08:12:12.312Z,9.20
2022-11-22T08:14:41.804Z,9.20
2022-11-22T08:17:10.413Z,9.20
2022-11-22T08:19:39.234Z,9.20
2022-11-22T08:22:07.460Z,9.20
2022-11-22T08:24:38.602Z,9.20
2022-11-22T08:27:06.932Z,9.20
2022-11-22T08:29:36.661Z,9.30
2022-11-22T08:32:05.357Z,9.20
2022-11-22T08:34:34.411Z,9.20
2022-11-22T08:37:02.716Z,9.30
2022-11-22T08:39:31.559Z,9.30
2022-11-22T08:41:59.910Z,9.30
2022-11-22T08:44:28.097Z,9.30
2022-11-22T08:46:57.632Z,9.30
2022-11-22T08:49:25.943Z,9.30
2022-11-22T08:51:54.129Z,9.30
2022-11-22T08:54:22.334Z,9.60
2022-11-22T08:56:50.475Z,9.30
2022-11-22T08:59:18.820Z,9.40
2022-11-22T09:01:47.061Z,9.40
2022-11-22T09:04:16.778Z,9.40
2022-11-22T09:09:38.177Z,9.50
2022-11-22T09:12:07.822Z,9.50
2022-11-22T09:14:36.265Z,9.50
2022-11-22T09:17:05.795Z,9.50
2022-11-22T09:19:35.416Z,9.60
2022-11-22T09:22:03.801Z,9.60
2022-11-22T09:24:32.153Z,9.60
2022-11-22T09:27:00.544Z,9.60
2022-11-22T09:29:29.080Z,9.70
2022-11-22T09:31:57.761Z,9.70
2022-11-22T09:34:29.023Z,9.70
2022-11-22T09:36:58.607Z,9.70
2022-11-22T09:39:27.107Z,9.70
2022-11-22T09:42:27.996Z,9.70
2022-11-22T09:45:21.309Z,9.70
2022-11-22T09:48:08.221Z,9.70
2022-11-22T09:50:47.939Z,9.70
2022-11-22T09:53:24.062Z,9.80
2022-11-22T09:55:55.607Z,9.80
2022-11-22T09:58:30.892Z,9.80
2022-11-22T10:01:04.562Z,9.80
2022-11-22T10:03:42.195Z,9.80
2022-11-22T10:06:19.309Z,9.80
2022-11-22T10:08:58.279Z,9.80
2022-11-22T10:11:36.816Z,9.80
2022-11-22T10:14:13.388Z,9.80
2022-11-22T10:16:48.198Z,9.80
2022-11-22T10:19:22.138Z,9.90
2022-11-22T10:21:50.626Z,9.90
2022-11-22T10:24:20.837Z,9.80
2022-11-22T10:26:50.045Z,9.90
2022-11-22T10:29:27.159Z,9.90
2022-11-22T10:32:03.892Z,9.90
2022-11-22T10:34:50.051Z,9.90
2022-11-22T10:37:29.239Z,9.90
2022-11-22T10:40:09.438Z,9.90
2022-11-22T10:43:06.400Z,9.90
2022-11-22T10:45:40.342Z,10.00
2022-11-22T10:48:22.103Z,10.00
2022-11-22T10:51:00.199Z,10.00
2022-11-22T10:53:42.040Z,10.00
2022-11-22T10:56:20.101Z,10.00
2022-11-22T10:59:01.788Z,10.00
2022-11-22T11:01:38.114Z,10.00
2022-11-22T11:04:09.012Z,10.00
2022-11-22T11:07:12.419Z,10.00
2022-11-22T11:12:43.076Z,10.10
2022-11-22T11:15:19.344Z,10.10
2022-11-22T11:17:50.137Z,10.10
2022-11-22T11:20:27.003Z,10.20
2022-11-22T11:25:45.141Z,10.10
2022-11-22T11:28:19.650Z,10.20
2022-11-22T11:30:50.631Z,10.40
2022-11-22T11:33:22.471Z,10.20
2022-11-22T11:35:54.980Z,10.20
2022-11-22T11:38:31.517Z,10.30
2022-11-22T11:40:59.978Z,10.40
2022-11-22T11:43:29.499Z,10.30
2022-11-22T11:46:17.841Z,10.30
2022-11-22T11:48:46.342Z,10.40
2022-11-22T11:51:25.618Z,10.30
2022-11-22T11:54:15.794Z,10.30
2022-11-22T11:56:49.681Z,10.30
2022-11-22T11:59:21.062Z,10.30
2022-11-22T12:01:54.466Z,10.30
2022-11-22T12:04:26.590Z,10.40
2022-11-22T12:07:03.463Z,10.40
2022-11-22T12:09:35.144Z,10.30
2022-11-22T12:12:23.550Z,10.40
2022-11-22T12:17:56.044Z,10.40
2022-11-22T12:20:31.182Z,10.40
2022-11-22T12:23:10.945Z,10.40
2022-11-22T12:25:41.042Z,10.40
2022-11-22T12:28:18.671Z,10.40
2022-11-22T12:30:52.449Z,10.40
2022-11-22T12:33:26.958Z,10.40
2022-11-22T12:35:57.711Z,10.50
2022-11-22T12:38:32.791Z,10.50
2022-11-22T12:41:04.510Z,10.40
2022-11-22T12:43:38.832Z,10.50
2022-11-22T12:46:13.334Z,10.40
2022-11-22T12:48:23.574Z,10.40
2022-11-22T12:48:48.901Z,10.50
2022-11-22T12:51:24.371Z,10.50
2022-11-22T12:53:54.322Z,10.50
2022-11-22T12:56:32.972Z,10.50
2022-11-22T12:59:09.382Z,10.50
2022-11-22T13:01:46.467Z,10.50
2022-11-22T13:04:20.357Z,10.50
2022-11-22T13:06:56.365Z,10.50
2022-11-22T13:09:30.188Z,10.50
2022-11-22T13:12:02.211Z,10.50
2022-11-22T13:14:35.552Z,10.50
2022-11-22T13:17:09.118Z,10.70
2022-11-22T13:19:46.365Z,10.50
2022-11-22T13:22:23.645Z,10.50
2022-11-22T13:25:08.760Z,10.70
2022-11-22T13:27:40.290Z,10.50
2022-11-22T13:30:19.965Z,10.50
2022-11-22T13:32:52.776Z,10.50
2022-11-22T13:35:30.320Z,10.50
2022-11-22T13:38:01.007Z,10.50
2022-11-22T13:40:31.245Z,10.80
2022-11-22T13:43:34.622Z,10.50
2022-11-22T13:46:04.449Z,10.50
2022-11-22T13:49:15.956Z,10.50
2022-11-22T13:51:56.150Z,10.50
2022-11-22T13:54:57.095Z,10.50
2022-11-22T13:57:32.126Z,10.50
2022-11-22T14:00:42.748Z,10.50
2022-11-22T14:03:37.150Z,10.50
2022-11-22T14:06:29.699Z,10.50
2022-11-22T14:09:17.530Z,10.50
2022-11-22T14:11:58.534Z,10.50
2022-11-22T14:14:35.017Z,10.50
2022-11-22T14:17:17.770Z,10.50
2022-11-22T14:20:02.101Z,10.50
2022-11-22T14:22:44.309Z,10.60
2022-11-22T14:25:45.138Z,10.60
2022-11-22T14:28:27.247Z,10.50
2022-11-22T14:30:55.563Z,10.50
2022-11-22T14:33:25.502Z,10.60
2022-11-22T14:36:17.490Z,10.50
2022-11-22T14:38:48.689Z,10.60
2022-11-22T14:41:53.570Z,10.50
2022-11-22T14:44:27.423Z,10.50
2022-11-22T14:47:00.150Z,10.50
2022-11-22T14:49:43.564Z,10.60
2022-11-22T14:52:22.467Z,10.60
2022-11-22T14:54:56.079Z,10.50
2022-11-22T14:57:27.513Z,10.60
2022-11-22T15:00:15.676Z,10.50
2022-11-22T15:03:17.171Z,10.60
2022-11-22T15:09:12.288Z,10.60
2022-11-22T15:09:46.518Z,10.50
2022-11-22T15:12:34.410Z,10.50
2022-11-22T15:57:26.812Z,10.40
2022-11-22T15:59:56.629Z,10.50
2022-11-22T16:02:30.204Z,10.50
2022-11-22T16:06:07.516Z,10.40
2022-11-22T16:07:50.874Z,10.40
2022-11-22T16:10:21.959Z,10.40
2022-11-22T16:12:50.766Z,10.40
2022-11-22T16:15:36.362Z,10.40
2022-11-22T16:18:15.480Z,10.40
2022-11-22T16:20:59.196Z,10.40
2022-11-22T16:23:32.521Z,10.40
2022-11-22T16:26:15.278Z,10.40
2022-11-22T16:33:58.375Z,10.40
2022-11-22T16:36:30.772Z,10.40
2022-11-22T16:38:59.673Z,10.40
2022-11-22T16:41:30.371Z,10.30
2022-11-22T16:44:01.802Z,10.30
2022-11-22T16:46:29.985Z,10.30
2022-11-22T16:48:59.688Z,10.30
2022-11-22T16:51:30.971Z,10.30
2022-11-22T16:54:01.179Z,10.30
2022-11-22T16:56:31.224Z,10.30
2022-11-22T16:58:59.866Z,10.70
2022-11-22T17:01:32.852Z,10.30
2022-11-22T17:04:03.741Z,10.30
2022-11-22T17:06:33.195Z,10.30
2022-11-22T17:09:02.162Z,10.30
2022-11-22T17:11:32.324Z,10.30
2022-11-22T17:14:01.149Z,10.30
2022-11-22T17:16:29.549Z,10.30
2022-11-22T17:18:57.847Z,10.30
2022-11-22T17:21:35.816Z,10.30
2022-11-22T17:24:07.444Z,10.30
2022-11-22T17:26:35.833Z,10.30
2022-11-22T17:29:04.146Z,10.30
2022-11-22T17:31:33.139Z,10.30
2022-11-22T17:34:01.396Z,10.30
2022-11-22T17:36:32.646Z,10.30
2022-11-22T17:39:02.583Z,10.30
2022-11-22T17:41:31.449Z,10.30
2022-11-22T17:44:00.046Z,10.30
2022-11-22T17:46:29.492Z,10.30
2022-11-22T17:48:59.572Z,10.30
2022-11-22T17:51:28.120Z,10.30
2022-11-22T17:53:58.890Z,10.30
2022-11-22T17:56:29.910Z,10.60
2022-11-22T17:58:58.316Z,10.30
2022-11-22T18:01:26.744Z,10.30
2022-11-22T18:03:54.898Z,10.30
2022-11-22T18:06:23.291Z,10.30
2022-11-22T18:08:51.767Z,10.30
2022-11-22T18:11:23.883Z,10.30
2022-11-22T18:13:52.358Z,10.30
2022-11-22T18:16:21.006Z,10.30
2022-11-22T18:18:56.785Z,10.30
2022-11-22T18:21:25.711Z,10.30
2022-11-22T18:23:53.987Z,10.30
2022-11-22T18:26:38.846Z,10.30
2022-11-22T18:29:38.981Z,10.30
2022-11-22T18:31:57.574Z,10.40
2022-11-22T18:34:26.281Z,10.40
2022-11-22T18:36:57.598Z,10.40
2022-11-22T18:39:33.303Z,10.40
2022-11-22T18:42:03.982Z,10.40
2022-11-22T18:44:32.247Z,10.30
2022-11-22T18:47:00.760Z,10.30
2022-11-22T18:49:29.596Z,10.30
2022-11-22T18:51:58.212Z,10.40
2022-11-22T18:54:26.492Z,10.40
2022-11-22T18:56:55.518Z,10.40
2022-11-22T18:59:25.101Z,10.40
2022-11-22T19:01:53.792Z,10.40
2022-11-22T19:04:22.146Z,10.40
2022-11-22T19:06:51.442Z,10.40
2022-11-22T19:09:19.828Z,10.40
2022-11-22T19:11:48.243Z,10.40
2022-11-22T19:14:16.682Z,10.40
2022-11-22T19:16:48.702Z,10.40
2022-11-22T19:19:16.835Z,10.40
2022-11-22T19:21:45.067Z,10.40
2022-11-22T19:24:13.388Z,10.40
2022-11-22T19:26:41.670Z,10.40
2022-11-22T19:29:10.066Z,10.40
2022-11-22T19:31:38.270Z,10.40
2022-11-22T19:34:07.925Z,10.40
2022-11-22T19:36:36.236Z,10.40
2022-11-22T19:39:06.201Z,10.40
2022-11-22T19:41:34.980Z,10.40
2022-11-22T19:44:03.486Z,10.40
2022-11-22T19:46:31.742Z,10.40
2022-11-22T19:49:04.542Z,10.40
2022-11-22T19:51:36.861Z,10.40
2022-11-22T19:54:06.105Z,10.50
2022-11-22T19:56:36.188Z,10.40
2022-11-22T19:59:07.001Z,10.40
2022-11-22T20:01:36.373Z,10.50
2022-11-22T20:04:08.536Z,10.50
2022-11-22T20:06:38.909Z,10.70
2022-11-22T20:09:10.184Z,10.40
2022-11-22T20:11:42.199Z,10.40
2022-11-22T20:14:10.744Z,10.50
2022-11-22T20:16:45.487Z,10.50
2022-11-22T20:19:15.757Z,10.50
2022-11-22T20:21:49.417Z,10.50
2022-11-22T20:24:17.605Z,10.50
2022-11-22T20:26:45.841Z,10.50
2022-11-22T20:29:15.207Z,10.50
2022-11-22T20:31:44.956Z,10.50
2022-11-22T20:34:15.915Z,10.50
2022-11-22T20:36:49.169Z,10.50
2022-11-22T20:39:17.548Z,10.50
2022-11-22T20:41:45.752Z,10.50
2022-11-22T20:44:20.825Z,10.50
2022-11-22T20:46:53.792Z,10.50
2022-11-22T20:49:25.003Z,10.50
2022-11-22T20:51:55.010Z,10.50
2022-11-22T20:54:23.146Z,10.50
2022-11-22T20:56:51.333Z,10.60
2022-11-22T20:59:19.493Z,10.50
2022-11-22T21:01:47.692Z,10.50
2022-11-22T21:04:18.584Z,10.50
2022-11-22T21:06:48.096Z,10.50
2022-11-22T21:09:18.440Z,10.60
2022-11-22T21:11:48.019Z,10.50
2022-11-22T21:14:22.606Z,10.50
2022-11-22T21:16:51.885Z,10.50
2022-11-22T21:19:21.085Z,10.50
2022-11-22T21:21:50.882Z,10.50
2022-11-22T21:24:20.909Z,10.50
2022-11-22T21:26:53.421Z,10.60
2022-11-22T21:29:21.659Z,10.50
2022-11-22T21:31:49.937Z,10.60
2022-11-22T21:34:18.265Z,10.50
2022-11-22T21:36:46.353Z,10.50
2022-11-22T21:39:14.592Z,10.60
2022-11-22T21:41:44.152Z,10.50
2022-11-22T21:44:12.384Z,10.60
2022-11-22T21:46:40.816Z,10.50
2022-11-22T21:49:09.130Z,10.60
2022-11-22T21:51:37.378Z,10.60
2022-11-22T21:54:05.844Z,10.50
2022-11-22T21:56:34.714Z,10.60
2022-11-22T21:59:04.808Z,10.60
2022-11-22T22:01:33.484Z,10.60
2022-11-22T22:04:01.854Z,10.60
2022-11-22T22:06:30.607Z,10.60
2022-11-22T22:08:59.026Z,10.60
2022-11-22T22:11:27.528Z,10.60
2022-11-22T22:13:58.154Z,10.90
2022-11-22T22:16:27.874Z,10.60
2022-11-22T22:18:56.223Z,10.60
2022-11-22T22:21:24.411Z,10.60
2022-11-22T22:23:53.489Z,10.60
2022-11-22T22:26:21.845Z,10.60
2022-11-22T22:28:50.336Z,10.60
2022-11-22T22:31:22.082Z,10.60
2022-11-22T22:33:54.390Z,10.60
2022-11-22T22:36:23.588Z,10.60
2022-11-22T22:38:51.985Z,10.60
2022-11-22T22:41:20.766Z,10.60
2022-11-22T22:43:50.292Z,10.60
2022-11-22T22:46:19.899Z,10.60
2022-11-22T22:48:51.831Z,10.60
2022-11-22T22:51:25.171Z,10.60
2022-11-22T22:53:56.944Z,10.60
2022-11-22T22:56:26.262Z,10.60
2022-11-22T22:58:56.394Z,10.60
2022-11-22T23:01:26.279Z,10.60
2022-11-22T23:04:08.711Z,10.60
2022-11-22T23:06:39.266Z,10.60
2022-11-22T23:09:10.701Z,10.70
2022-11-22T23:11:56.500Z,10.60
2022-11-22T23:14:26.598Z,10.70
2022-11-22T23:16:57.962Z,10.70
2022-11-22T23:19:29.175Z,10.70
2022-11-22T23:21:57.744Z,10.70
2022-11-22T23:24:25.970Z,10.70
2022-11-22T23:26:54.313Z,10.70
2022-11-22T23:29:22.554Z,10.70
2022-11-22T23:31:50.748Z,10.70
2022-11-22T23:34:19.303Z,10.70
2022-11-22T23:36:48.994Z,10.70
2022-11-22T23:39:17.452Z,10.70
2022-11-22T23:41:46.088Z,10.70
2022-11-22T23:44:14.530Z,10.70
2022-11-22T23:46:42.870Z,10.70
2022-11-22T23:49:13.033Z,10.70
2022-11-22T23:51:41.305Z,10.80
2022-11-22T23:54:11.861Z,10.80
2022-11-22T23:56:40.146Z,10.70
2022-11-22T23:59:08.608Z,10.70
